Time;durP1;ratioP1;P1;durP2;ratioP2;P2;SDS_P1;SDS_P2;PMS_P1;PMS_P2;Temp;Humidity;BMP_temperature;BMP_pressure;BME280_temperature;BME280_humidity;BME280_pressure;Samples;Min_cycle;Max_cycle;Signal;HPM_P1;HPM_P2
2022/08/06 00:00:41;;;;;;;3.42;1.30;;;14.30;99.90;;;;;;5048465;28;20037;-59
2022/08/06 00:03:07;;;;;;;3.50;1.50;;;14.40;99.90;;;;;;5052543;28;20570;-59
2022/08/06 00:05:33;;;;;;;6.43;1.73;;;14.40;99.90;;;;;;5049486;28;20029;-59
2022/08/06 00:07:58;;;;;;;3.72;1.60;;;14.40;99.90;;;;;;5049614;28;20024;-58
2022/08/06 00:10:25;;;;;;;3.90;1.42;;;14.50;99.90;;;;;;5047673;28;20029;-59
2022/08/06 00:12:51;;;;;;;3.15;1.35;;;14.40;99.90;;;;;;5042505;28;20662;-58
2022/08/06 00:15:20;;;;;;;5.07;1.48;;;14.40;99.90;;;;;;5049272;28;20094;-59
2022/08/06 00:17:46;;;;;;;5.97;1.50;;;14.30;99.90;;;;;;5054923;28;20734;-59
2022/08/06 00:20:14;;;;;;;4.30;1.42;;;14.30;99.90;;;;;;5046650;28;20037;-58
2022/08/06 00:22:40;;;;;;;4.45;1.52;;;14.30;99.90;;;;;;5049830;28;20233;-58
2022/08/06 00:25:07;;;;;;;3.67;1.45;;;14.30;99.90;;;;;;5046308;28;20017;-58
2022/08/06 00:27:33;;;;;;;5.13;1.48;;;14.20;99.90;;;;;;5046000;28;20033;-59
2022/08/06 00:29:59;;;;;;;3.58;1.40;;;14.10;99.90;;;;;;5049902;28;20024;-59
2022/08/06 00:32:25;;;;;;;3.78;1.38;;;14.00;99.90;;;;;;5049482;28;20029;-59
2022/08/06 00:34:51;;;;;;;4.53;1.50;;;14.00;99.90;;;;;;5052191;28;20028;-59
2022/08/06 00:37:16;;;;;;;4.47;1.58;;;14.00;99.90;;;;;;5049397;28;20447;-59
2022/08/06 00:39:42;;;;;;;4.10;1.10;;;14.00;99.90;;;;;;5045254;28;20100;-58
2022/08/06 00:42:08;;;;;;;5.28;1.67;;;13.90;99.90;;;;;;5046058;28;20372;-58
2022/08/06 00:44:34;;;;;;;4.65;1.60;;;14.00;99.90;;;;;;5051460;28;20029;-59
2022/08/06 00:47:00;;;;;;;4.70;1.90;;;13.90;99.90;;;;;;5044981;28;20025;-59
2022/08/06 00:49:26;;;;;;;3.05;1.30;;;13.90;99.90;;;;;;5052038;28;20025;-59
2022/08/06 00:51:52;;;;;;;2.33;1.50;;;13.80;99.90;;;;;;5044294;28;20372;-59
2022/08/06 00:54:19;;;;;;;5.38;1.58;;;13.70;99.90;;;;;;5044445;28;20104;-58
2022/08/06 00:56:44;;;;;;;6.35;1.58;;;13.80;99.90;;;;;;5045839;28;20548;-59
2022/08/06 00:59:10;;;;;;;3.70;1.40;;;13.80;99.90;;;;;;5045733;28;20029;-58
2022/08/06 01:01:35;;;;;;;4.63;1.63;;;13.70;99.90;;;;;;5044825;28;20590;-58
2022/08/06 01:04:01;;;;;;;5.07;1.77;;;13.40;99.90;;;;;;5045344;28;20095;-59
2022/08/06 01:06:26;;;;;;;5.07;1.95;;;13.50;99.90;;;;;;5045630;28;20021;-58
2022/08/06 01:08:52;;;;;;;5.35;1.77;;;13.60;99.90;;;;;;5045298;28;20319;-59
2022/08/06 01:11:18;;;;;;;5.93;1.75;;;13.60;99.90;;;;;;5045410;28;20028;-58
2022/08/06 01:13:43;;;;;;;4.93;1.70;;;13.50;99.90;;;;;;5047529;28;20071;-59
2022/08/06 01:16:23;;;;;;;3.72;1.75;;;13.50;99.90;;;;;;5045345;28;20060;-58
2022/08/06 01:19:25;;;;;;;5.95;1.63;;;13.40;99.90;;;;;;5050461;28;20051;-58
2022/08/06 01:22:17;;;;;;;3.28;1.55;;;13.40;99.90;;;;;;5038854;28;20550;-59
2022/08/06 01:25:26;;;;;;;5.35;1.60;;;13.40;99.90;;;;;;5040641;28;20022;-58
2022/08/06 01:27:58;;;;;;;3.60;1.83;;;13.30;99.90;;;;;;5044664;28;20008;-58
2022/08/06 01:30:30;;;;;;;5.53;1.90;;;13.20;99.90;;;;;;5045424;28;20033;-59
2022/08/06 01:33:05;;;;;;;4.43;1.88;;;13.30;99.90;;;;;;5045154;28;20139;-58
2022/08/06 01:35:38;;;;;;;6.57;1.80;;;13.30;99.90;;;;;;5044286;28;20049;-59
2022/08/06 01:38:07;;;;;;;3.80;1.70;;;13.30;99.90;;;;;;5044792;28;20032;-58
2022/08/06 01:40:35;;;;;;;3.45;1.75;;;13.30;99.90;;;;;;5045120;28;20568;-58
2022/08/06 01:43:06;;;;;;;3.95;1.50;;;13.30;99.90;;;;;;5044971;28;20025;-59
2022/08/06 01:45:33;;;;;;;7.72;1.98;;;13.20;99.90;;;;;;5044120;28;20231;-59
2022/08/06 01:48:03;;;;;;;3.10;1.40;;;13.20;99.90;;;;;;5044660;28;20520;-59
2022/08/06 01:50:41;;;;;;;6.35;2.03;;;13.20;99.90;;;;;;5044771;28;20037;-58
2022/08/06 01:53:11;;;;;;;4.07;2.05;;;13.20;99.90;;;;;;5044658;28;20029;-58
2022/08/06 01:55:43;;;;;;;6.82;1.80;;;13.20;99.90;;;;;;5044495;28;20412;-58
2022/08/06 01:58:10;;;;;;;6.65;2.10;;;13.20;99.90;;;;;;5040582;28;20024;-58
2022/08/06 02:00:41;;;;;;;5.63;2.00;;;13.10;99.90;;;;;;5038319;28;20028;-58
2022/08/06 02:03:14;;;;;;;4.18;2.00;;;13.10;99.90;;;;;;5041018;28;20025;-58
2022/08/06 02:05:42;;;;;;;2.72;1.50;;;13.10;99.90;;;;;;5044030;28;20021;-58
2022/08/06 02:08:10;;;;;;;3.95;1.90;;;12.90;99.90;;;;;;5041947;28;20495;-59
2022/08/06 02:10:36;;;;;;;4.43;2.08;;;13.00;99.90;;;;;;5044292;28;20087;-59
2022/08/06 02:13:03;;;;;;;2.63;1.70;;;13.10;99.90;;;;;;5042881;28;20072;-59
2022/08/06 02:15:32;;;;;;;4.85;2.10;;;13.00;99.90;;;;;;5047212;28;20523;-58
2022/08/06 02:18:01;;;;;;;9.68;2.50;;;12.90;99.90;;;;;;5045544;28;20033;-59
2022/08/06 02:20:30;;;;;;;9.68;2.00;;;12.90;99.90;;;;;;5043426;28;20036;-59
2022/08/06 02:22:59;;;;;;;5.50;1.90;;;12.90;99.90;;;;;;5044127;28;20035;-58
2022/08/06 02:25:26;;;;;;;5.72;1.90;;;12.90;99.90;;;;;;5044290;28;20025;-58
2022/08/06 02:27:55;;;;;;;5.18;2.08;;;12.80;99.90;;;;;;5043763;28;20436;-59
2022/08/06 02:30:21;;;;;;;4.05;2.10;;;12.80;99.90;;;;;;5043929;28;20476;-58
2022/08/06 02:32:47;;;;;;;5.25;1.98;;;12.80;99.90;;;;;;5043897;28;20032;-58
2022/08/06 02:35:13;;;;;;;5.43;2.00;;;12.70;99.90;;;;;;5044011;28;20047;-58
2022/08/06 02:37:44;;;;;;;4.72;2.20;;;12.80;99.90;;;;;;5043411;28;20067;-58
2022/08/06 02:40:27;;;;;;;6.85;1.85;;;12.70;99.90;;;;;;5043340;28;20479;-59
2022/08/06 02:43:06;;;;;;;3.85;1.63;;;12.70;99.90;;;;;;5040418;28;20044;-58
2022/08/06 02:45:51;;;;;;;6.25;1.90;;;12.70;99.90;;;;;;5043580;28;20035;-58
2022/08/06 02:48:26;;;;;;;4.60;2.08;;;12.60;99.90;;;;;;5028563;28;20385;-58
2022/08/06 02:50:53;;;;;;;5.88;2.42;;;12.70;99.90;;;;;;5038425;28;20021;-58
2022/08/06 02:53:24;;;;;;;7.15;2.10;;;12.60;99.90;;;;;;5043451;28;20064;-58
2022/08/06 02:55:55;;;;;;;9.73;2.70;;;12.60;99.90;;;;;;5043273;28;20448;-58
2022/08/06 02:58:38;;;;;;;3.88;2.20;;;12.60;99.90;;;;;;5043403;28;20031;-58
2022/08/06 03:01:08;;;;;;;7.93;2.50;;;12.60;99.90;;;;;;5043285;28;20823;-58
2022/08/06 03:03:35;;;;;;;4.18;1.92;;;12.50;99.90;;;;;;5041668;28;20021;-59
2022/08/06 03:06:05;;;;;;;6.28;2.38;;;12.50;99.90;;;;;;5043358;28;20067;-58
2022/08/06 03:08:32;;;;;;;2.72;2.00;;;12.50;99.90;;;;;;5043526;28;20728;-58
2022/08/06 03:10:58;;;;;;;5.68;1.90;;;12.50;99.90;;;;;;5043581;28;20408;-57
2022/08/06 03:13:25;;;;;;;8.65;2.38;;;12.50;99.90;;;;;;5042679;28;20048;-58
2022/08/06 03:15:52;;;;;;;5.20;2.25;;;12.50;99.90;;;;;;5043267;28;20025;-58
2022/08/06 03:18:19;;;;;;;7.28;2.05;;;12.40;99.90;;;;;;5053808;28;20059;-58
2022/08/06 03:20:45;;;;;;;4.13;2.20;;;12.40;99.90;;;;;;5045986;28;20061;-58
2022/08/06 03:23:13;;;;;;;3.63;2.05;;;12.50;99.90;;;;;;5047418;28;20086;-58
2022/08/06 03:25:39;;;;;;;5.03;1.85;;;12.40;99.90;;;;;;5046801;28;20029;-58
2022/08/06 03:28:07;;;;;;;4.47;2.20;;;12.50;99.90;;;;;;5047492;28;20151;-58
2022/08/06 03:30:34;;;;;;;5.93;2.70;;;12.40;99.90;;;;;;5046004;28;20532;-58
2022/08/06 03:33:11;;;;;;;4.78;2.50;;;12.40;99.90;;;;;;5047863;28;20373;-58
2022/08/06 03:35:38;;;;;;;4.55;2.25;;;12.30;99.90;;;;;;5044943;28;20131;-58
2022/08/06 03:38:07;;;;;;;7.60;2.10;;;12.40;99.90;;;;;;5047130;28;20740;-58
2022/08/06 03:40:34;;;;;;;4.13;2.40;;;12.50;99.90;;;;;;5047407;28;20473;-58
2022/08/06 03:42:59;;;;;;;5.85;2.40;;;12.40;99.90;;;;;;5047422;28;20526;-58
2022/08/06 03:45:27;;;;;;;5.32;2.65;;;12.40;99.90;;;;;;5046918;28;20028;-58
2022/08/06 03:47:56;;;;;;;5.95;2.65;;;12.40;99.90;;;;;;5045738;28;20047;-58
2022/08/06 03:50:29;;;;;;;5.47;2.75;;;12.30;99.90;;;;;;5047209;28;20485;-58
2022/08/06 03:53:03;;;;;;;7.00;2.90;;;12.30;99.90;;;;;;5047493;28;20033;-58
2022/08/06 03:55:34;;;;;;;6.50;2.83;;;12.30;99.90;;;;;;5046950;28;20041;-58
2022/08/06 03:58:04;;;;;;;7.50;3.08;;;12.30;99.90;;;;;;5044549;28;20025;-58
2022/08/06 04:00:36;;;;;;;4.57;2.38;;;12.30;99.90;;;;;;5046761;28;20544;-58
2022/08/06 04:03:04;;;;;;;7.95;2.70;;;12.30;99.90;;;;;;5047051;28;20067;-58
2022/08/06 04:05:31;;;;;;;6.45;2.72;;;12.30;99.90;;;;;;5046834;28;20078;-58
2022/08/06 04:08:04;;;;;;;8.75;2.65;;;12.20;99.90;;;;;;5048044;28;20017;-58
2022/08/06 04:10:44;;;;;;;8.07;2.80;;;12.20;99.90;;;;;;5046177;28;20029;-58
2022/08/06 04:13:13;;;;;;;3.92;2.40;;;12.20;99.90;;;;;;5044260;28;20160;-58
2022/08/06 04:15:39;;;;;;;6.07;2.55;;;12.20;99.90;;;;;;5047257;28;20029;-58
2022/08/06 04:18:12;;;;;;;6.55;2.78;;;12.20;99.90;;;;;;5055349;28;20025;-58
2022/08/06 04:20:41;;;;;;;2.72;1.98;;;12.20;99.90;;;;;;5045803;28;20093;-58
2022/08/06 04:23:06;;;;;;;3.70;2.60;;;12.20;99.90;;;;;;5046516;28;20032;-58
2022/08/06 04:25:38;;;;;;;6.07;2.83;;;12.20;99.90;;;;;;5045164;28;20025;-58
2022/08/06 04:28:06;;;;;;;6.18;2.67;;;12.20;99.90;;;;;;5046182;28;20021;-58
2022/08/06 04:30:33;;;;;;;9.02;3.35;;;12.20;99.90;;;;;;5044507;28;20500;-57
2022/08/06 04:33:02;;;;;;;6.65;2.95;;;12.20;99.90;;;;;;5046435;28;20118;-58
2022/08/06 04:35:29;;;;;;;4.75;2.90;;;12.20;99.90;;;;;;5046050;28;20740;-59
2022/08/06 04:37:55;;;;;;;5.50;2.92;;;12.20;99.90;;;;;;5046109;28;20088;-58
2022/08/06 04:40:22;;;;;;;5.70;2.92;;;12.30;99.90;;;;;;5046107;28;20048;-58
2022/08/06 04:42:48;;;;;;;4.75;3.22;;;12.20;99.90;;;;;;5045394;28;20025;-58
2022/08/06 04:45:13;;;;;;;4.70;3.00;;;12.20;99.90;;;;;;5039797;28;20504;-58
2022/08/06 04:47:40;;;;;;;7.97;3.63;;;12.30;99.90;;;;;;5045817;28;20033;-58
2022/08/06 04:50:06;;;;;;;8.73;3.53;;;12.30;99.90;;;;;;5045745;28;20477;-58
2022/08/06 04:52:32;;;;;;;6.03;3.50;;;12.30;99.90;;;;;;5041990;28;20084;-57
2022/08/06 04:54:58;;;;;;;5.00;3.35;;;12.30;99.90;;;;;;5045161;28;20040;-58
2022/08/06 04:57:23;;;;;;;8.32;4.18;;;12.30;99.90;;;;;;5045927;28;20037;-58
2022/08/06 04:59:49;;;;;;;7.25;3.97;;;12.40;99.90;;;;;;5045723;28;20032;-58
2022/08/06 05:02:14;;;;;;;9.50;4.00;;;12.40;99.90;;;;;;5045324;28;20036;-58
2022/08/06 05:04:41;;;;;;;8.82;4.07;;;12.40;99.90;;;;;;5044575;28;20024;-58
2022/08/06 05:07:15;;;;;;;9.93;4.50;;;12.50;99.90;;;;;;5045372;28;20025;-58
2022/08/06 05:09:41;;;;;;;10.50;4.43;;;12.60;99.90;;;;;;5045522;28;20460;-58
2022/08/06 05:12:30;;;;;;;7.18;4.28;;;12.60;99.90;;;;;;5045630;28;20108;-58
2022/08/06 05:15:19;;;;;;;7.07;4.65;;;12.60;99.90;;;;;;5042591;28;20078;-58
2022/08/06 05:18:10;;;;;;;10.00;4.45;;;12.70;99.90;;;;;;5050195;28;20428;-58
2022/08/06 05:20:39;;;;;;;7.55;4.78;;;12.70;99.90;;;;;;5044189;28;20511;-58
2022/08/06 05:23:13;;;;;;;8.40;4.97;;;12.70;99.90;;;;;;5045288;28;20035;-58
2022/08/06 05:25:39;;;;;;;8.38;5.03;;;12.80;99.90;;;;;;5044596;28;20021;-58
2022/08/06 05:28:05;;;;;;;13.18;5.35;;;12.80;99.90;;;;;;5045197;28;20603;-58
2022/08/06 05:30:31;;;;;;;8.45;5.32;;;13.10;99.90;;;;;;5045472;28;20064;-58
2022/08/06 05:32:58;;;;;;;10.55;5.93;;;13.20;99.90;;;;;;5044138;28;20061;-58
2022/08/06 05:35:24;;;;;;;11.80;5.88;;;13.20;99.90;;;;;;5049075;28;20036;-59
2022/08/06 05:37:50;;;;;;;8.65;5.47;;;13.30;99.90;;;;;;5041847;28;20037;-58
2022/08/06 05:40:15;;;;;;;14.50;6.40;;;13.40;99.90;;;;;;5050866;28;20029;-59
2022/08/06 05:42:41;;;;;;;10.48;6.40;;;13.50;99.90;;;;;;5045232;28;20550;-58
2022/08/06 05:45:11;;;;;;;11.55;5.75;;;13.60;99.90;;;;;;5044894;28;20033;-58
2022/08/06 05:47:39;;;;;;;15.02;5.90;;;13.60;99.90;;;;;;5043983;28;20025;-59
2022/08/06 05:50:08;;;;;;;9.77;5.88;;;13.80;99.90;;;;;;5049585;28;20443;-58
2022/08/06 05:52:51;;;;;;;11.43;5.63;;;13.80;99.90;;;;;;5038346;28;20146;-59
2022/08/06 05:55:25;;;;;;;9.88;6.32;;;13.80;99.90;;;;;;5044960;28;20025;-59
2022/08/06 05:57:56;;;;;;;10.68;5.50;;;14.00;99.90;;;;;;5044613;28;21052;-58
2022/08/06 06:00:23;;;;;;;12.02;5.88;;;14.00;99.90;;;;;;5043880;28;20108;-59
2022/08/06 06:02:53;;;;;;;10.65;6.13;;;14.10;99.90;;;;;;5044470;28;20061;-58
2022/08/06 06:05:20;;;;;;;11.25;5.82;;;14.00;99.90;;;;;;5044778;28;20779;-58
2022/08/06 06:07:47;;;;;;;11.00;6.40;;;14.10;99.90;;;;;;5039826;28;20059;-59
2022/08/06 06:10:14;;;;;;;9.73;5.07;;;14.20;99.90;;;;;;5043681;28;20040;-58
2022/08/06 06:12:40;;;;;;;8.02;5.10;;;14.20;99.90;;;;;;5044392;28;20048;-58
2022/08/06 06:15:07;;;;;;;10.82;6.03;;;14.30;99.90;;;;;;5044348;28;20029;-58
2022/08/06 06:18:01;;;;;;;12.10;5.78;;;14.30;99.90;;;;;;5049805;28;20518;-59
2022/08/06 06:20:53;;;;;;;10.43;5.55;;;14.40;99.90;;;;;;5043235;28;20029;-58
2022/08/06 06:23:29;;;;;;;12.27;5.20;;;14.60;99.90;;;;;;5044380;28;20110;-59
2022/08/06 06:26:01;;;;;;;9.43;4.88;;;14.70;99.90;;;;;;5043957;28;20040;-58
2022/08/06 06:29:07;;;;;;;12.10;5.10;;;14.70;99.90;;;;;;5044212;28;20060;-58
2022/08/06 06:31:52;;;;;;;10.45;4.53;;;14.70;99.90;;;;;;5043568;28;20080;-59
2022/08/06 06:34:31;;;;;;;10.43;4.93;;;14.70;99.90;;;;;;5043998;28;20032;-58
2022/08/06 06:37:09;;;;;;;10.93;4.20;;;14.70;99.90;;;;;;5044131;28;20154;-59
2022/08/06 06:40:05;;;;;;;12.60;4.72;;;14.50;99.90;;;;;;5043421;28;20033;-59
2022/08/06 06:42:58;;;;;;;11.93;4.88;;;14.60;99.90;;;;;;5041456;28;20054;-58
2022/08/06 06:45:42;;;;;;;8.48;4.28;;;14.80;99.90;;;;;;5039569;28;20309;-58
2022/08/06 06:48:23;;;;;;;11.05;4.05;;;15.00;99.90;;;;;;5042258;28;20017;-58
2022/08/06 06:50:53;;;;;;;8.18;4.05;;;15.00;99.90;;;;;;5042164;28;20473;-58
2022/08/06 06:53:20;;;;;;;9.38;3.90;;;15.20;99.90;;;;;;5041656;28;20051;-59
2022/08/06 06:55:48;;;;;;;16.15;5.95;;;15.40;99.90;;;;;;5043794;28;20037;-59
2022/08/06 06:58:45;;;;;;;11.95;4.00;;;15.50;99.90;;;;;;5043539;28;20024;-59
2022/08/06 07:01:13;;;;;;;5.85;3.45;;;15.70;99.90;;;;;;5043552;28;20687;-59
2022/08/06 07:03:41;;;;;;;9.75;3.75;;;15.60;99.90;;;;;;5043506;28;20507;-59
2022/08/06 07:06:08;;;;;;;8.30;3.45;;;15.70;99.90;;;;;;5035984;28;20021;-59
2022/08/06 07:08:43;;;;;;;10.30;3.45;;;15.70;99.90;;;;;;5043389;28;20025;-58
2022/08/06 07:11:09;;;;;;;7.18;3.40;;;15.70;99.90;;;;;;5043289;28;20033;-59
2022/08/06 07:13:36;;;;;;;9.80;3.47;;;15.80;99.90;;;;;;5044030;28;20483;-59
2022/08/06 07:16:05;;;;;;;6.07;2.70;;;16.00;99.90;;;;;;5039989;28;20033;-59
2022/08/06 07:18:33;;;;;;;6.50;2.75;;;16.00;99.90;;;;;;5048397;28;20032;-58
2022/08/06 07:20:59;;;;;;;6.20;2.55;;;16.30;99.90;;;;;;5043140;28;20095;-59
2022/08/06 07:23:25;;;;;;;6.97;2.50;;;16.30;99.90;;;;;;5043175;28;20029;-59
2022/08/06 07:25:54;;;;;;;5.68;2.65;;;16.50;99.90;;;;;;5043070;28;20029;-58
2022/08/06 07:28:23;;;;;;;6.45;2.00;;;16.60;99.90;;;;;;5042166;28;20029;-59
2022/08/06 07:30:48;;;;;;;9.98;1.90;;;16.60;99.90;;;;;;5043078;28;20485;-58
2022/08/06 07:33:15;;;;;;;9.57;1.67;;;16.80;99.90;;;;;;5043079;28;20029;-58
2022/08/06 07:35:43;;;;;;;3.80;1.77;;;16.80;99.90;;;;;;5042986;28;20067;-59
2022/08/06 07:38:12;;;;;;;4.78;1.65;;;16.90;99.90;;;;;;5041858;28;20029;-59
2022/08/06 07:40:43;;;;;;;4.60;1.60;;;17.00;99.90;;;;;;5042902;28;20033;-58
2022/08/06 07:43:12;;;;;;;4.40;1.20;;;16.90;99.90;;;;;;5043067;28;20021;-59
2022/08/06 07:45:38;;;;;;;5.60;1.33;;;16.90;99.90;;;;;;5042584;28;20029;-59
2022/08/06 07:48:13;;;;;;;4.60;1.00;;;17.20;99.90;;;;;;5044952;28;20500;-59
2022/08/06 07:50:45;;;;;;;3.25;1.15;;;17.40;99.90;;;;;;5040147;28;20484;-59
2022/08/06 07:53:12;;;;;;;3.47;1.23;;;17.20;99.90;;;;;;5043431;28;20469;-59
2022/08/06 07:55:38;;;;;;;4.65;0.80;;;17.30;99.90;;;;;;5043105;28;20492;-59
2022/08/06 07:58:06;;;;;;;7.88;1.25;;;17.50;99.90;;;;;;5042686;28;20051;-59
2022/08/06 08:00:32;;;;;;;3.22;0.80;;;17.60;99.90;;;;;;5042191;28;20021;-59
2022/08/06 08:08:29;;;;;;;2.95;0.60;;;17.60;99.90;;;;;;5041402;28;20224;-59
2022/08/06 08:10:56;;;;;;;2.15;0.60;;;17.60;99.90;;;;;;5049544;28;20036;-59
2022/08/06 08:13:23;;;;;;;9.32;1.00;;;17.70;99.90;;;;;;5047138;28;20099;-59
2022/08/06 08:15:49;;;;;;;3.95;0.80;;;17.50;99.90;;;;;;5046599;28;20071;-59
2022/08/06 08:18:15;;;;;;;2.80;0.60;;;17.70;99.90;;;;;;5045506;28;20033;-59
2022/08/06 08:20:42;;;;;;;2.95;0.60;;;17.90;99.90;;;;;;5046534;28;20025;-59
2022/08/06 08:23:12;;;;;;;2.50;0.50;;;17.90;99.90;;;;;;5035950;28;20025;-59
2022/08/06 08:25:38;;;;;;;1.98;0.45;;;17.80;99.90;;;;;;5045797;28;20472;-59
2022/08/06 08:28:04;;;;;;;4.88;0.60;;;17.70;99.90;;;;;;5044867;28;20017;-59
2022/08/06 08:30:30;;;;;;;1.25;0.60;;;17.60;99.90;;;;;;5048094;28;20056;-59
2022/08/06 08:32:56;;;;;;;2.45;0.50;;;17.70;99.90;;;;;;5037882;28;20511;-59
2022/08/06 08:35:22;;;;;;;2.15;0.60;;;17.80;99.90;;;;;;5045467;28;20036;-59
2022/08/06 08:37:47;;;;;;;3.00;0.55;;;17.80;99.90;;;;;;5048432;28;20029;-60
2022/08/06 08:40:13;;;;;;;1.38;0.50;;;17.90;99.90;;;;;;5046917;28;20044;-59
2022/08/06 08:42:45;;;;;;;3.85;0.65;;;17.90;99.90;;;;;;5044521;28;20017;-59
2022/08/06 08:45:13;;;;;;;0.65;0.32;;;17.80;99.90;;;;;;5044011;28;20025;-58
2022/08/06 08:47:45;;;;;;;1.85;0.50;;;17.80;99.90;;;;;;5052463;28;20024;-60
2022/08/06 08:50:10;;;;;;;5.40;0.50;;;17.70;99.90;;;;;;5046263;28;20017;-59
2022/08/06 08:52:39;;;;;;;1.75;0.50;;;17.80;99.90;;;;;;5045607;28;20082;-59
2022/08/06 08:55:09;;;;;;;2.83;0.40;;;17.90;99.90;;;;;;5045073;28;20013;-59
2022/08/06 08:57:36;;;;;;;2.17;0.57;;;17.80;99.90;;;;;;5051238;28;20451;-59
2022/08/06 09:00:05;;;;;;;1.33;0.60;;;17.80;99.90;;;;;;5046348;28;20063;-60
2022/08/06 09:02:31;;;;;;;1.65;0.52;;;17.80;99.90;;;;;;5044912;28;20147;-58
2022/08/06 09:04:58;;;;;;;4.38;0.73;;;18.00;99.90;;;;;;5045349;28;20413;-59
2022/08/06 09:07:24;;;;;;;3.10;0.60;;;18.00;99.90;;;;;;5044693;28;20033;-58
2022/08/06 09:09:50;;;;;;;1.90;0.70;;;18.10;99.90;;;;;;5045728;28;20669;-58
2022/08/06 09:12:16;;;;;;;2.78;0.50;;;18.20;99.90;;;;;;5045214;28;20083;-58
2022/08/06 09:14:43;;;;;;;3.78;0.68;;;18.20;99.90;;;;;;5045903;28;20072;-59
2022/08/06 09:17:09;;;;;;;2.67;0.50;;;18.10;99.90;;;;;;5044870;28;20021;-59
2022/08/06 09:19:35;;;;;;;3.10;0.70;;;18.10;99.90;;;;;;5050404;28;20077;-59
2022/08/06 09:22:00;;;;;;;1.95;0.40;;;18.20;99.90;;;;;;5044905;28;20112;-58
2022/08/06 09:24:26;;;;;;;1.85;0.50;;;18.20;99.90;;;;;;5045128;28;20472;-59
2022/08/06 09:27:22;;;;;;;4.70;0.47;;;18.70;99.90;;;;;;5044906;28;20630;-59
2022/08/06 09:29:59;;;;;;;2.13;0.47;;;19.20;99.90;;;;;;5035053;28;20731;-59
2022/08/06 09:32:45;;;;;;;2.83;0.52;;;18.90;99.90;;;;;;5044075;28;20274;-59
2022/08/06 09:35:40;;;;;;;1.85;0.38;;;19.40;99.90;;;;;;5045235;28;20037;-59
2022/08/06 09:38:09;;;;;;;1.73;0.40;;;19.10;99.90;;;;;;5034329;28;20072;-60
2022/08/06 09:40:35;;;;;;;3.25;0.63;;;19.30;99.90;;;;;;5044863;28;20036;-60
2022/08/06 09:43:01;;;;;;;3.20;0.70;;;19.30;99.90;;;;;;5044820;28;20033;-59
2022/08/06 09:45:27;;;;;;;1.80;0.60;;;19.10;99.90;;;;;;5044687;28;20024;-59
2022/08/06 09:48:07;;;;;;;3.08;0.80;;;19.20;99.90;;;;;;5044479;28;20028;-60
2022/08/06 09:50:43;;;;;;;2.53;0.70;;;19.10;99.90;;;;;;5038955;28;20483;-59
2022/08/06 09:53:10;;;;;;;1.95;0.60;;;19.30;99.90;;;;;;5044513;28;20029;-58
2022/08/06 09:55:36;;;;;;;2.25;0.50;;;19.40;99.90;;;;;;5044586;28;20033;-59
2022/08/06 09:58:02;;;;;;;4.30;0.68;;;19.50;99.90;;;;;;5044307;28;20029;-59
2022/08/06 10:00:34;;;;;;;2.90;0.70;;;19.50;99.90;;;;;;5043394;28;20022;-59
2022/08/06 10:03:05;;;;;;;4.55;0.80;;;19.60;99.90;;;;;;5044298;28;20487;-59
2022/08/06 10:05:32;;;;;;;3.22;0.70;;;19.70;99.90;;;;;;5044506;28;20021;-59
2022/08/06 10:08:09;;;;;;;2.00;0.60;;;19.80;99.90;;;;;;5044131;28;20108;-59
2022/08/06 10:10:49;;;;;;;3.15;0.65;;;19.80;99.90;;;;;;5044294;28;20714;-59
2022/08/06 10:13:15;;;;;;;1.63;0.50;;;19.60;99.90;;;;;;5044152;28;20029;-59
2022/08/06 10:15:44;;;;;;;2.92;0.50;;;20.00;99.90;;;;;;5044986;28;20535;-60
2022/08/06 10:18:10;;;;;;;2.10;0.50;;;20.00;99.90;;;;;;5049336;28;20474;-59
2022/08/06 10:20:36;;;;;;;4.25;0.80;;;19.80;99.90;;;;;;5045126;28;20494;-59
2022/08/06 10:23:01;;;;;;;1.17;0.55;;;19.40;99.90;;;;;;5039603;28;20035;-59
2022/08/06 10:25:31;;;;;;;2.95;0.52;;;19.50;99.90;;;;;;5043812;28;20052;-59
2022/08/06 10:28:00;;;;;;;2.55;0.52;;;19.60;99.90;;;;;;5042383;28;20452;-58
2022/08/06 10:30:27;;;;;;;1.58;0.45;;;19.30;99.90;;;;;;5043860;28;20043;-58
2022/08/06 10:32:54;;;;;;;4.50;0.88;;;19.40;99.90;;;;;;5037250;28;20040;-59
2022/08/06 10:35:23;;;;;;;1.75;0.60;;;19.50;99.90;;;;;;5043468;28;20051;-60
2022/08/06 10:38:12;;;;;;;1.33;0.50;;;19.60;99.90;;;;;;5043427;28;20033;-60
2022/08/06 10:40:39;;;;;;;1.48;0.40;;;19.80;99.90;;;;;;5038283;28;20060;-60
2022/08/06 10:43:06;;;;;;;1.65;0.50;;;20.10;99.90;;;;;;5043961;28;20035;-60
2022/08/06 10:45:33;;;;;;;2.47;0.60;;;20.20;99.90;;;;;;5042908;28;20493;-59
2022/08/06 10:47:59;;;;;;;1.38;0.70;;;19.70;99.90;;;;;;5043091;28;20021;-60
2022/08/06 10:50:25;;;;;;;1.83;0.40;;;20.00;99.90;;;;;;5043451;28;20025;-59
2022/08/06 10:52:51;;;;;;;1.92;0.68;;;20.00;99.90;;;;;;5036806;28;20067;-60
2022/08/06 10:55:17;;;;;;;2.00;0.40;;;20.50;99.90;;;;;;5042342;28;20656;-58
2022/08/06 10:57:43;;;;;;;2.13;0.50;;;20.20;99.90;;;;;;5043217;28;20100;-59
2022/08/06 11:00:09;;;;;;;2.65;0.47;;;20.20;99.90;;;;;;5043601;28;20036;-59
2022/08/06 11:03:00;;;;;;;3.22;0.98;;;20.40;99.90;;;;;;5043503;28;20473;-60
2022/08/06 11:05:33;;;;;;;1.77;0.50;;;20.60;99.90;;;;;;5043607;28;20021;-60
2022/08/06 11:08:17;;;;;;;5.30;0.77;;;20.70;99.90;;;;;;5039255;28;20048;-59
2022/08/06 11:11:08;;;;;;;1.33;0.50;;;;;;;;;;5043467;28;20052;-59
2022/08/06 11:13:50;;;;;;;2.40;0.60;;;;;;;;;;5041718;28;20024;-59
2022/08/06 11:16:23;;;;;;;1.17;0.60;;;21.10;99.90;;;;;;5043516;28;20405;-59
2022/08/06 11:18:59;;;;;;;;;;;20.60;99.90;;;;;;5051759;28;20403;-60
2022/08/06 11:21:39;;;;;;;1.58;0.40;;;20.50;99.90;;;;;;5043161;28;19913;-60
2022/08/06 11:24:05;;;;;;;1.58;0.40;;;20.50;99.90;;;;;;5043410;28;20032;-60
2022/08/06 11:26:37;;;;;;;3.65;0.40;;;21.00;99.90;;;;;;5043390;28;20029;-59
2022/08/06 11:29:04;;;;;;;3.40;0.50;;;20.90;99.90;;;;;;5036430;28;20026;-60
2022/08/06 11:31:32;;;;;;;1.45;0.50;;;21.20;99.90;;;;;;5043122;28;20114;-60
2022/08/06 11:34:00;;;;;;;2.45;0.60;;;21.10;99.90;;;;;;5043715;28;20040;-60
2022/08/06 11:36:41;;;;;;;4.15;1.65;;;20.60;99.90;;;;;;5043188;28;20110;-60
2022/08/06 11:39:07;;;;;;;1.05;0.40;;;20.70;99.90;;;;;;5039771;28;20040;-60
2022/08/06 11:41:45;;;;;;;2.72;0.50;;;20.50;99.90;;;;;;5046809;28;20021;-59
2022/08/06 11:44:12;;;;;;;1.27;0.50;;;20.40;99.90;;;;;;5046816;28;20017;-60
2022/08/06 11:46:40;;;;;;;1.50;0.40;;;20.50;99.90;;;;;;5047035;28;20461;-59
2022/08/06 11:49:22;;;;;;;1.42;0.50;;;20.40;99.90;;;;;;5047013;28;20032;-59
2022/08/06 11:51:56;;;;;;;2.15;0.47;;;20.60;99.90;;;;;;5047647;28;20036;-60
2022/08/06 11:54:23;;;;;;;1.48;0.40;;;;;;;;;;5046799;28;20025;-60
2022/08/06 11:57:01;;;;;;;2.03;0.50;;;20.90;99.90;;;;;;5046923;28;20036;-60
2022/08/06 11:59:27;;;;;;;0.77;0.30;;;21.40;99.90;;;;;;5046885;28;20029;-59
2022/08/06 12:01:53;;;;;;;1.50;0.50;;;21.40;99.90;;;;;;5046007;28;20096;-60
2022/08/06 12:04:42;;;;;;;1.73;0.47;;;21.40;99.90;;;;;;5046608;28;20614;-60
2022/08/06 12:07:26;;;;;;;2.85;0.47;;;21.20;99.90;;;;;;5046635;28;20388;-60
2022/08/06 12:10:08;;;;;;;2.90;0.60;;;21.10;99.90;;;;;;5046664;28;20499;-59
2022/08/06 12:12:39;;;;;;;2.58;0.40;;;;;;;;;;5044137;28;20044;-60
2022/08/06 12:15:15;;;;;;;0.82;0.40;;;20.60;99.90;;;;;;5049155;28;20017;-60
2022/08/06 12:17:58;;;;;;;2.65;0.50;;;20.80;99.90;;;;;;5044018;28;20082;-60
2022/08/06 12:20:35;;;;;;;2.72;0.55;;;21.20;99.90;;;;;;5046665;28;20607;-59
2022/08/06 12:23:12;;;;;;;1.20;0.50;;;21.20;99.90;;;;;;5046439;28;20469;-59
2022/08/06 12:25:45;;;;;;;3.97;0.50;;;21.10;99.90;;;;;;5046441;28;20024;-59
2022/08/06 12:28:13;;;;;;;;;;;21.20;99.90;;;;;;5041259;28;20025;-60
2022/08/06 12:30:50;;;;;;;0.80;0.30;;;;;;;;;;5045882;28;20356;-59
2022/08/06 12:33:18;;;;;;;1.35;0.40;;;21.20;99.90;;;;;;5044201;28;20124;-59
2022/08/06 12:36:10;;;;;;;0.60;0.40;;;21.40;99.90;;;;;;5036529;28;20408;-60
2022/08/06 12:38:36;;;;;;;2.75;0.50;;;21.40;99.90;;;;;;5041819;28;20037;-60
2022/08/06 12:41:04;;;;;;;2.72;0.52;;;21.20;99.90;;;;;;5044750;28;20025;-59
2022/08/06 12:43:32;;;;;;;4.65;0.50;;;;;;;;;;5045865;28;20510;-60
2022/08/06 12:45:59;;;;;;;1.38;0.50;;;;;;;;;;5044832;28;20079;-60
2022/08/06 12:48:27;;;;;;;3.50;0.73;;;;;;;;;;5043480;28;20131;-60
2022/08/06 12:51:04;;;;;;;8.50;0.70;;;;;;;;;;5041181;28;20063;-59
2022/08/06 12:53:30;;;;;;;2.83;0.52;;;;;;;;;;5045904;28;20037;-60
2022/08/06 12:55:57;;;;;;;3.08;0.75;;;;;;;;;;5043642;28;20052;-59
2022/08/06 12:58:34;;;;;;;2.70;0.60;;;;;;;;;;5044947;28;20086;-59
2022/08/06 13:01:02;;;;;;;2.33;0.52;;;;;;;;;;5045364;28;20044;-60
2022/08/06 13:03:30;;;;;;;2.15;0.60;;;;;;;;;;5045647;28;20094;-59
2022/08/06 13:05:58;;;;;;;1.30;0.43;;;;;;;;;;5044488;28;20024;-59
2022/08/06 13:08:26;;;;;;;4.65;0.80;;;;;;;;;;5045094;28;20072;-59
2022/08/06 13:10:53;;;;;;;2.42;0.65;;;;;;;;;;5045424;28;20699;-60
2022/08/06 13:13:20;;;;;;;1.90;0.57;;;;;;;;;;5046559;28;20385;-59
2022/08/06 13:16:07;;;;;;;1.17;0.45;;;21.70;99.90;;;;;;5048732;28;20463;-60